sensor_id;sensor_type;location;lat;lon;timestamp;P1;durP1;ratioP1;P2;durP2;ratioP2
30307;SDS011;17114;52.314;8.910;2023-06-26T00:00:09;10.23;;;7.90;;
30307;SDS011;17114;52.314;8.910;2023-06-26T00:02:37;10.18;;;7.45;;
30307;SDS011;17114;52.314;8.910;2023-06-26T00:05:04;9.27;;;7.57;;
30307;SDS011;17114;52.314;8.910;2023-06-26T00:07:31;9.65;;;7.82;;
30307;SDS011;17114;52.314;8.910;2023-06-26T00:10:01;9.38;;;7.55;;
30307;SDS011;17114;52.314;8.910;2023-06-26T00:12:29;9.05;;;8.05;;
30307;SDS011;17114;52.314;8.910;2023-06-26T00:14:57;8.25;;;7.38;;
30307;SDS011;17114;52.314;8.910;2023-06-26T00:17:25;10.20;;;7.85;;
30307;SDS011;17114;52.314;8.910;2023-06-26T00:19:51;9.48;;;7.15;;
30307;SDS011;17114;52.314;8.910;2023-06-26T00:22:19;8.15;;;7.30;;
30307;SDS011;17114;52.314;8.910;2023-06-26T00:24:47;9.15;;;7.60;;
30307;SDS011;17114;52.314;8.910;2023-06-26T00:27:14;9.85;;;7.95;;
30307;SDS011;17114;52.314;8.910;2023-06-26T00:29:40;10.73;;;7.95;;
30307;SDS011;17114;52.314;8.910;2023-06-26T00:32:07;9.15;;;7.90;;
30307;SDS011;17114;52.314;8.910;2023-06-26T00:34:34;9.18;;;7.97;;
30307;SDS011;17114;52.314;8.910;2023-06-26T00:37:01;9.45;;;7.72;;
30307;SDS011;17114;52.314;8.910;2023-06-26T00:39:28;9.38;;;8.00;;
30307;SDS011;17114;52.314;8.910;2023-06-26T00:41:55;9.35;;;7.53;;
30307;SDS011;17114;52.314;8.910;2023-06-26T00:44:22;8.80;;;7.90;;
30307;SDS011;17114;52.314;8.910;2023-06-26T00:46:49;10.23;;;7.57;;
30307;SDS011;17114;52.314;8.910;2023-06-26T00:49:16;8.90;;;7.95;;
30307;SDS011;17114;52.314;8.910;2023-06-26T00:51:43;10.73;;;8.38;;
30307;SDS011;17114;52.314;8.910;2023-06-26T00:54:10;11.77;;;8.13;;
30307;SDS011;17114;52.314;8.910;2023-06-26T00:56:37;10.93;;;7.70;;
30307;SDS011;17114;52.314;8.910;2023-06-26T00:59:05;9.95;;;7.93;;
30307;SDS011;17114;52.314;8.910;2023-06-26T01:01:32;11.02;;;8.35;;
30307;SDS011;17114;52.314;8.910;2023-06-26T01:03:59;10.23;;;7.53;;
30307;SDS011;17114;52.314;8.910;2023-06-26T01:06:28;10.23;;;7.95;;
30307;SDS011;17114;52.314;8.910;2023-06-26T01:08:58;9.35;;;7.68;;
30307;SDS011;17114;52.314;8.910;2023-06-26T01:11:26;9.57;;;7.78;;
30307;SDS011;17114;52.314;8.910;2023-06-26T01:13:53;11.13;;;7.95;;
30307;SDS011;17114;52.314;8.910;2023-06-26T01:16:22;10.40;;;7.88;;
30307;SDS011;17114;52.314;8.910;2023-06-26T01:18:50;9.00;;;7.75;;
30307;SDS011;17114;52.314;8.910;2023-06-26T01:21:19;8.23;;;7.40;;
30307;SDS011;17114;52.314;8.910;2023-06-26T01:24:01;10.30;;;8.18;;
30307;SDS011;17114;52.314;8.910;2023-06-26T01:26:35;8.70;;;7.80;;
30307;SDS011;17114;52.314;8.910;2023-06-26T01:29:04;10.82;;;7.82;;
30307;SDS011;17114;52.314;8.910;2023-06-26T01:31:33;10.57;;;7.50;;
30307;SDS011;17114;52.314;8.910;2023-06-26T01:34:01;8.93;;;7.80;;
30307;SDS011;17114;52.314;8.910;2023-06-26T01:36:29;9.55;;;6.80;;
30307;SDS011;17114;52.314;8.910;2023-06-26T01:38:57;11.18;;;6.90;;
30307;SDS011;17114;52.314;8.910;2023-06-26T01:41:24;9.65;;;7.60;;
30307;SDS011;17114;52.314;8.910;2023-06-26T01:43:57;8.73;;;7.00;;
30307;SDS011;17114;52.314;8.910;2023-06-26T01:46:36;8.85;;;6.68;;
30307;SDS011;17114;52.314;8.910;2023-06-26T01:51:51;8.57;;;6.70;;
30307;SDS011;17114;52.314;8.910;2023-06-26T01:54:27;8.75;;;6.70;;
30307;SDS011;17114;52.314;8.910;2023-06-26T01:56:59;8.93;;;7.07;;
30307;SDS011;17114;52.314;8.910;2023-06-26T01:59:27;8.98;;;6.97;;
30307;SDS011;17114;52.314;8.910;2023-06-26T02:01:56;9.35;;;7.28;;
30307;SDS011;17114;52.314;8.910;2023-06-26T02:04:23;8.25;;;6.47;;
30307;SDS011;17114;52.314;8.910;2023-06-26T02:06:49;8.98;;;7.30;;
30307;SDS011;17114;52.314;8.910;2023-06-26T02:09:16;8.00;;;6.43;;
30307;SDS011;17114;52.314;8.910;2023-06-26T02:11:44;10.30;;;7.00;;
30307;SDS011;17114;52.314;8.910;2023-06-26T02:14:11;8.65;;;6.80;;
30307;SDS011;17114;52.314;8.910;2023-06-26T02:16:38;8.63;;;6.40;;
30307;SDS011;17114;52.314;8.910;2023-06-26T02:19:08;14.38;;;6.80;;
30307;SDS011;17114;52.314;8.910;2023-06-26T02:21:35;9.75;;;6.22;;
30307;SDS011;17114;52.314;8.910;2023-06-26T02:24:02;11.23;;;6.70;;
30307;SDS011;17114;52.314;8.910;2023-06-26T02:26:29;8.15;;;6.30;;
30307;SDS011;17114;52.314;8.910;2023-06-26T02:28:56;7.90;;;6.68;;
30307;SDS011;17114;52.314;8.910;2023-06-26T02:31:22;10.20;;;6.72;;
30307;SDS011;17114;52.314;8.910;2023-06-26T02:33:49;8.07;;;6.70;;
30307;SDS011;17114;52.314;8.910;2023-06-26T02:36:16;8.23;;;6.68;;
30307;SDS011;17114;52.314;8.910;2023-06-26T02:38:43;7.28;;;6.25;;
30307;SDS011;17114;52.314;8.910;2023-06-26T02:41:10;8.43;;;6.32;;
30307;SDS011;17114;52.314;8.910;2023-06-26T02:43:37;9.25;;;6.85;;
30307;SDS011;17114;52.314;8.910;2023-06-26T02:46:04;9.50;;;6.85;;
30307;SDS011;17114;52.314;8.910;2023-06-26T02:48:31;8.18;;;6.80;;
30307;SDS011;17114;52.314;8.910;2023-06-26T02:50:58;9.77;;;6.88;;
30307;SDS011;17114;52.314;8.910;2023-06-26T02:53:25;8.02;;;6.45;;
30307;SDS011;17114;52.314;8.910;2023-06-26T02:55:52;8.88;;;6.85;;
30307;SDS011;17114;52.314;8.910;2023-06-26T02:58:19;7.55;;;6.15;;
30307;SDS011;17114;52.314;8.910;2023-06-26T03:00:46;9.00;;;6.75;;
30307;SDS011;17114;52.314;8.910;2023-06-26T03:03:13;7.25;;;6.15;;
30307;SDS011;17114;52.314;8.910;2023-06-26T03:05:40;7.00;;;5.95;;
30307;SDS011;17114;52.314;8.910;2023-06-26T03:08:07;7.10;;;6.07;;
30307;SDS011;17114;52.314;8.910;2023-06-26T03:10:34;11.85;;;6.80;;
30307;SDS011;17114;52.314;8.910;2023-06-26T03:13:01;7.10;;;5.90;;
30307;SDS011;17114;52.314;8.910;2023-06-26T03:15:28;7.55;;;6.55;;
30307;SDS011;17114;52.314;8.910;2023-06-26T03:17:55;9.57;;;6.93;;
30307;SDS011;17114;52.314;8.910;2023-06-26T03:20:22;7.95;;;6.40;;
30307;SDS011;17114;52.314;8.910;2023-06-26T03:22:50;9.38;;;6.20;;
30307;SDS011;17114;52.314;8.910;2023-06-26T03:25:17;9.27;;;6.47;;
30307;SDS011;17114;52.314;8.910;2023-06-26T03:27:44;7.45;;;6.40;;
30307;SDS011;17114;52.314;8.910;2023-06-26T03:30:11;10.35;;;6.55;;
30307;SDS011;17114;52.314;8.910;2023-06-26T03:32:38;9.10;;;6.63;;
30307;SDS011;17114;52.314;8.910;2023-06-26T03:35:05;9.50;;;5.95;;
30307;SDS011;17114;52.314;8.910;2023-06-26T03:37:32;7.88;;;6.30;;
30307;SDS011;17114;52.314;8.910;2023-06-26T03:39:59;7.13;;;5.72;;
30307;SDS011;17114;52.314;8.910;2023-06-26T03:42:26;7.43;;;6.38;;
30307;SDS011;17114;52.314;8.910;2023-06-26T03:44:53;8.82;;;6.28;;
30307;SDS011;17114;52.314;8.910;2023-06-26T03:47:20;8.15;;;6.45;;
30307;SDS011;17114;52.314;8.910;2023-06-26T03:49:46;7.80;;;6.07;;
30307;SDS011;17114;52.314;8.910;2023-06-26T03:52:13;9.88;;;6.68;;
30307;SDS011;17114;52.314;8.910;2023-06-26T03:54:40;8.23;;;6.70;;
30307;SDS011;17114;52.314;8.910;2023-06-26T03:57:08;8.63;;;6.47;;
30307;SDS011;17114;52.314;8.910;2023-06-26T03:59:35;7.55;;;6.30;;
30307;SDS011;17114;52.314;8.910;2023-06-26T04:02:02;7.55;;;6.40;;
30307;SDS011;17114;52.314;8.910;2023-06-26T04:04:29;8.63;;;6.40;;
30307;SDS011;17114;52.314;8.910;2023-06-26T04:06:57;9.07;;;6.38;;
30307;SDS011;17114;52.314;8.910;2023-06-26T04:09:25;7.10;;;6.10;;
30307;SDS011;17114;52.314;8.910;2023-06-26T04:11:53;16.60;;;6.57;;
30307;SDS011;17114;52.314;8.910;2023-06-26T04:14:20;7.80;;;5.95;;
30307;SDS011;17114;52.314;8.910;2023-06-26T04:16:47;9.45;;;7.10;;
30307;SDS011;17114;52.314;8.910;2023-06-26T04:19:14;11.05;;;6.50;;
30307;SDS011;17114;52.314;8.910;2023-06-26T04:21:40;6.75;;;6.03;;
30307;SDS011;17114;52.314;8.910;2023-06-26T04:24:08;7.35;;;6.55;;
30307;SDS011;17114;52.314;8.910;2023-06-26T04:26:35;13.23;;;7.15;;
30307;SDS011;17114;52.314;8.910;2023-06-26T04:29:02;8.95;;;6.47;;
30307;SDS011;17114;52.314;8.910;2023-06-26T04:31:29;9.90;;;6.50;;
30307;SDS011;17114;52.314;8.910;2023-06-26T04:33:56;8.57;;;5.72;;
30307;SDS011;17114;52.314;8.910;2023-06-26T04:36:24;7.18;;;6.07;;
30307;SDS011;17114;52.314;8.910;2023-06-26T04:38:54;8.60;;;6.03;;
30307;SDS011;17114;52.314;8.910;2023-06-26T04:41:22;8.63;;;5.93;;
30307;SDS011;17114;52.314;8.910;2023-06-26T04:43:49;7.28;;;6.30;;
30307;SDS011;17114;52.314;8.910;2023-06-26T04:46:16;10.80;;;6.85;;
30307;SDS011;17114;52.314;8.910;2023-06-26T04:48:43;7.85;;;6.03;;
30307;SDS011;17114;52.314;8.910;2023-06-26T04:51:13;8.02;;;5.75;;
30307;SDS011;17114;52.314;8.910;2023-06-26T04:53:40;7.50;;;6.15;;
30307;SDS011;17114;52.314;8.910;2023-06-26T04:56:07;8.43;;;6.25;;
30307;SDS011;17114;52.314;8.910;2023-06-26T04:58:33;11.23;;;5.70;;
30307;SDS011;17114;52.314;8.910;2023-06-26T05:01:00;6.78;;;5.68;;
30307;SDS011;17114;52.314;8.910;2023-06-26T05:03:29;6.65;;;5.55;;
30307;SDS011;17114;52.314;8.910;2023-06-26T05:05:56;6.97;;;6.28;;
30307;SDS011;17114;52.314;8.910;2023-06-26T05:08:23;8.55;;;5.75;;
30307;SDS011;17114;52.314;8.910;2023-06-26T05:10:52;7.78;;;6.05;;
30307;SDS011;17114;52.314;8.910;2023-06-26T05:13:24;7.68;;;6.07;;
30307;SDS011;17114;52.314;8.910;2023-06-26T05:15:52;10.20;;;6.25;;
30307;SDS011;17114;52.314;8.910;2023-06-26T05:18:19;7.07;;;5.53;;
30307;SDS011;17114;52.314;8.910;2023-06-26T05:20:46;6.30;;;5.03;;
30307;SDS011;17114;52.314;8.910;2023-06-26T05:23:13;9.45;;;6.28;;
30307;SDS011;17114;52.314;8.910;2023-06-26T05:25:42;8.32;;;5.43;;
30307;SDS011;17114;52.314;8.910;2023-06-26T05:28:09;8.55;;;5.57;;
30307;SDS011;17114;52.314;8.910;2023-06-26T05:30:38;9.55;;;5.97;;
30307;SDS011;17114;52.314;8.910;2023-06-26T05:33:05;6.32;;;5.35;;
30307;SDS011;17114;52.314;8.910;2023-06-26T05:35:36;9.30;;;5.80;;
30307;SDS011;17114;52.314;8.910;2023-06-26T05:38:04;6.38;;;5.38;;
30307;SDS011;17114;52.314;8.910;2023-06-26T05:40:31;9.25;;;6.00;;
30307;SDS011;17114;52.314;8.910;2023-06-26T05:43:00;7.68;;;5.80;;
30307;SDS011;17114;52.314;8.910;2023-06-26T05:45:27;7.03;;;5.80;;
30307;SDS011;17114;52.314;8.910;2023-06-26T05:47:54;9.48;;;5.88;;
30307;SDS011;17114;52.314;8.910;2023-06-26T05:50:21;8.52;;;6.05;;
30307;SDS011;17114;52.314;8.910;2023-06-26T05:52:48;6.70;;;5.72;;
30307;SDS011;17114;52.314;8.910;2023-06-26T05:55:15;8.95;;;5.65;;
30307;SDS011;17114;52.314;8.910;2023-06-26T05:57:43;8.50;;;5.38;;
30307;SDS011;17114;52.314;8.910;2023-06-26T06:00:11;6.78;;;5.60;;
30307;SDS011;17114;52.314;8.910;2023-06-26T06:02:38;6.97;;;5.53;;
30307;SDS011;17114;52.314;8.910;2023-06-26T06:07:40;6.38;;;5.60;;
30307;SDS011;17114;52.314;8.910;2023-06-26T06:10:07;9.48;;;5.57;;
30307;SDS011;17114;52.314;8.910;2023-06-26T06:12:37;8.88;;;6.05;;
30307;SDS011;17114;52.314;8.910;2023-06-26T06:15:05;9.55;;;5.70;;
30307;SDS011;17114;52.314;8.910;2023-06-26T06:17:32;7.28;;;5.22;;
30307;SDS011;17114;52.314;8.910;2023-06-26T06:19:59;11.75;;;5.75;;
30307;SDS011;17114;52.314;8.910;2023-06-26T06:22:26;6.43;;;5.72;;
30307;SDS011;17114;52.314;8.910;2023-06-26T06:24:53;8.23;;;6.07;;
30307;SDS011;17114;52.314;8.910;2023-06-26T06:27:20;10.23;;;5.97;;
30307;SDS011;17114;52.314;8.910;2023-06-26T06:29:47;8.15;;;5.93;;
30307;SDS011;17114;52.314;8.910;2023-06-26T06:32:17;7.95;;;6.13;;
30307;SDS011;17114;52.314;8.910;2023-06-26T06:34:44;11.23;;;6.10;;
30307;SDS011;17114;52.314;8.910;2023-06-26T06:37:12;10.10;;;6.45;;
30307;SDS011;17114;52.314;8.910;2023-06-26T06:39:39;8.25;;;6.30;;
30307;SDS011;17114;52.314;8.910;2023-06-26T06:42:06;10.45;;;6.03;;
30307;SDS011;17114;52.314;8.910;2023-06-26T06:44:34;8.88;;;6.15;;
30307;SDS011;17114;52.314;8.910;2023-06-26T06:47:01;10.88;;;6.80;;
30307;SDS011;17114;52.314;8.910;2023-06-26T06:49:28;9.05;;;6.43;;
30307;SDS011;17114;52.314;8.910;2023-06-26T06:52:00;9.38;;;7.07;;
30307;SDS011;17114;52.314;8.910;2023-06-26T06:54:28;15.27;;;7.15;;
30307;SDS011;17114;52.314;8.910;2023-06-26T06:56:56;10.25;;;7.50;;
30307;SDS011;17114;52.314;8.910;2023-06-26T06:59:23;10.48;;;7.13;;
30307;SDS011;17114;52.314;8.910;2023-06-26T07:01:49;8.90;;;6.18;;
30307;SDS011;17114;52.314;8.910;2023-06-26T07:04:17;8.45;;;6.50;;
30307;SDS011;17114;52.314;8.910;2023-06-26T07:06:44;7.97;;;6.28;;
30307;SDS011;17114;52.314;8.910;2023-06-26T07:09:11;9.32;;;6.75;;
30307;SDS011;17114;52.314;8.910;2023-06-26T07:11:38;8.75;;;6.63;;
30307;SDS011;17114;52.314;8.910;2023-06-26T07:14:04;13.25;;;7.50;;
30307;SDS011;17114;52.314;8.910;2023-06-26T07:16:31;10.50;;;7.63;;
30307;SDS011;17114;52.314;8.910;2023-06-26T07:18:58;10.75;;;7.07;;
30307;SDS011;17114;52.314;8.910;2023-06-26T07:21:25;8.65;;;7.10;;
30307;SDS011;17114;52.314;8.910;2023-06-26T07:23:52;10.38;;;7.60;;
30307;SDS011;17114;52.314;8.910;2023-06-26T07:26:19;12.95;;;7.07;;
30307;SDS011;17114;52.314;8.910;2023-06-26T07:29:08;12.25;;;8.23;;
30307;SDS011;17114;52.314;8.910;2023-06-26T07:31:34;11.95;;;8.07;;
30307;SDS011;17114;52.314;8.910;2023-06-26T07:34:01;10.40;;;7.78;;
30307;SDS011;17114;52.314;8.910;2023-06-26T07:36:28;10.75;;;8.57;;
30307;SDS011;17114;52.314;8.910;2023-06-26T07:38:55;11.35;;;8.32;;
30307;SDS011;17114;52.314;8.910;2023-06-26T07:41:22;12.10;;;8.25;;
30307;SDS011;17114;52.314;8.910;2023-06-26T07:43:48;13.80;;;8.73;;
30307;SDS011;17114;52.314;8.910;2023-06-26T07:46:15;11.32;;;8.15;;
30307;SDS011;17114;52.314;8.910;2023-06-26T07:48:42;11.88;;;8.80;;
30307;SDS011;17114;52.314;8.910;2023-06-26T07:51:09;11.07;;;9.00;;
30307;SDS011;17114;52.314;8.910;2023-06-26T07:53:36;11.68;;;9.05;;
30307;SDS011;17114;52.314;8.910;2023-06-26T07:56:02;18.80;;;8.40;;
30307;SDS011;17114;52.314;8.910;2023-06-26T07:58:29;14.95;;;9.25;;
30307;SDS011;17114;52.314;8.910;2023-06-26T08:00:56;17.45;;;9.82;;
30307;SDS011;17114;52.314;8.910;2023-06-26T08:03:23;12.45;;;8.18;;
30307;SDS011;17114;52.314;8.910;2023-06-26T08:06:00;10.77;;;8.52;;
30307;SDS011;17114;52.314;8.910;2023-06-26T08:08:27;14.15;;;9.20;;
30307;SDS011;17114;52.314;8.910;2023-06-26T08:10:53;14.50;;;9.25;;
30307;SDS011;17114;52.314;8.910;2023-06-26T08:13:20;13.45;;;8.48;;
30307;SDS011;17114;52.314;8.910;2023-06-26T08:15:47;12.80;;;8.23;;
30307;SDS011;17114;52.314;8.910;2023-06-26T08:18:14;12.43;;;8.85;;
30307;SDS011;17114;52.314;8.910;2023-06-26T08:20:41;13.02;;;8.95;;
30307;SDS011;17114;52.314;8.910;2023-06-26T08:23:08;10.27;;;8.43;;
30307;SDS011;17114;52.314;8.910;2023-06-26T08:25:35;12.25;;;8.82;;
30307;SDS011;17114;52.314;8.910;2023-06-26T08:28:02;17.73;;;9.27;;
30307;SDS011;17114;52.314;8.910;2023-06-26T08:30:29;15.85;;;9.18;;
30307;SDS011;17114;52.314;8.910;2023-06-26T08:32:58;14.88;;;9.20;;
30307;SDS011;17114;52.314;8.910;2023-06-26T08:35:25;14.75;;;9.25;;
30307;SDS011;17114;52.314;8.910;2023-06-26T08:37:52;13.70;;;9.75;;
30307;SDS011;17114;52.314;8.910;2023-06-26T08:40:20;17.40;;;9.32;;
30307;SDS011;17114;52.314;8.910;2023-06-26T08:42:47;13.43;;;9.50;;
30307;SDS011;17114;52.314;8.910;2023-06-26T08:45:19;15.93;;;10.45;;
30307;SDS011;17114;52.314;8.910;2023-06-26T08:47:46;15.05;;;9.32;;
30307;SDS011;17114;52.314;8.910;2023-06-26T08:50:18;14.57;;;9.80;;
30307;SDS011;17114;52.314;8.910;2023-06-26T08:55:36;18.23;;;9.55;;
30307;SDS011;17114;52.314;8.910;2023-06-26T08:58:07;13.60;;;8.90;;
30307;SDS011;17114;52.314;8.910;2023-06-26T09:00:34;13.90;;;9.00;;
30307;SDS011;17114;52.314;8.910;2023-06-26T09:03:02;13.82;;;9.73;;
30307;SDS011;17114;52.314;8.910;2023-06-26T09:05:30;12.70;;;9.38;;
30307;SDS011;17114;52.314;8.910;2023-06-26T09:08:00;11.18;;;9.07;;
30307;SDS011;17114;52.314;8.910;2023-06-26T09:10:27;12.35;;;9.18;;
30307;SDS011;17114;52.314;8.910;2023-06-26T09:12:57;13.50;;;9.18;;
30307;SDS011;17114;52.314;8.910;2023-06-26T09:15:43;19.40;;;10.38;;
30307;SDS011;17114;52.314;8.910;2023-06-26T09:18:11;15.23;;;8.57;;
30307;SDS011;17114;52.314;8.910;2023-06-26T09:20:38;16.10;;;9.35;;
30307;SDS011;17114;52.314;8.910;2023-06-26T09:23:06;13.02;;;9.25;;
30307;SDS011;17114;52.314;8.910;2023-06-26T09:25:33;13.10;;;9.98;;
30307;SDS011;17114;52.314;8.910;2023-06-26T09:28:00;18.70;;;10.13;;
30307;SDS011;17114;52.314;8.910;2023-06-26T09:30:27;15.18;;;9.00;;
30307;SDS011;17114;52.314;8.910;2023-06-26T09:32:53;12.38;;;8.18;;
30307;SDS011;17114;52.314;8.910;2023-06-26T09:35:21;14.27;;;8.73;;
30307;SDS011;17114;52.314;8.910;2023-06-26T09:37:48;16.35;;;8.38;;
30307;SDS011;17114;52.314;8.910;2023-06-26T09:40:15;11.75;;;7.72;;
30307;SDS011;17114;52.314;8.910;2023-06-26T09:42:43;11.68;;;8.18;;
30307;SDS011;17114;52.314;8.910;2023-06-26T09:45:17;10.57;;;7.70;;
30307;SDS011;17114;52.314;8.910;2023-06-26T09:47:45;13.73;;;7.57;;
30307;SDS011;17114;52.314;8.910;2023-06-26T09:50:22;13.88;;;7.45;;
30307;SDS011;17114;52.314;8.910;2023-06-26T09:52:51;13.93;;;8.93;;
30307;SDS011;17114;52.314;8.910;2023-06-26T09:55:19;11.57;;;8.40;;
30307;SDS011;17114;52.314;8.910;2023-06-26T09:57:49;14.80;;;8.05;;
30307;SDS011;17114;52.314;8.910;2023-06-26T10:00:17;13.48;;;8.13;;
30307;SDS011;17114;52.314;8.910;2023-06-26T10:02:45;10.75;;;7.88;;
30307;SDS011;17114;52.314;8.910;2023-06-26T10:05:12;12.93;;;8.20;;
30307;SDS011;17114;52.314;8.910;2023-06-26T10:07:39;12.68;;;7.30;;
30307;SDS011;17114;52.314;8.910;2023-06-26T10:10:07;10.63;;;7.50;;
30307;SDS011;17114;52.314;8.910;2023-06-26T10:12:34;13.52;;;7.70;;
30307;SDS011;17114;52.314;8.910;2023-06-26T10:15:02;17.17;;;8.27;;
30307;SDS011;17114;52.314;8.910;2023-06-26T10:17:34;11.98;;;6.93;;
30307;SDS011;17114;52.314;8.910;2023-06-26T10:20:03;14.82;;;7.25;;
30307;SDS011;17114;52.314;8.910;2023-06-26T10:22:34;13.32;;;7.00;;
30307;SDS011;17114;52.314;8.910;2023-06-26T10:25:06;14.40;;;7.28;;
30307;SDS011;17114;52.314;8.910;2023-06-26T10:27:36;16.10;;;7.20;;
30307;SDS011;17114;52.314;8.910;2023-06-26T10:30:11;11.13;;;7.35;;
30307;SDS011;17114;52.314;8.910;2023-06-26T10:32:44;12.57;;;7.13;;
30307;SDS011;17114;52.314;8.910;2023-06-26T10:35:15;11.93;;;7.60;;
30307;SDS011;17114;52.314;8.910;2023-06-26T10:37:46;12.27;;;6.57;;
30307;SDS011;17114;52.314;8.910;2023-06-26T10:40:20;11.35;;;6.70;;
30307;SDS011;17114;52.314;8.910;2023-06-26T10:43:07;13.05;;;6.35;;
30307;SDS011;17114;52.314;8.910;2023-06-26T10:45:35;13.10;;;6.60;;
30307;SDS011;17114;52.314;8.910;2023-06-26T10:48:03;10.07;;;6.60;;
30307;SDS011;17114;52.314;8.910;2023-06-26T10:50:33;12.80;;;6.72;;
30307;SDS011;17114;52.314;8.910;2023-06-26T10:53:11;11.65;;;7.32;;
30307;SDS011;17114;52.314;8.910;2023-06-26T10:55:41;11.05;;;7.35;;
30307;SDS011;17114;52.314;8.910;2023-06-26T11:03:48;12.95;;;6.50;;
30307;SDS011;17114;52.314;8.910;2023-06-26T11:06:37;12.15;;;6.10;;
30307;SDS011;17114;52.314;8.910;2023-06-26T11:09:09;11.35;;;5.75;;
30307;SDS011;17114;52.314;8.910;2023-06-26T11:14:31;8.40;;;5.15;;
30307;SDS011;17114;52.314;8.910;2023-06-26T11:16:58;10.75;;;4.93;;
30307;SDS011;17114;52.314;8.910;2023-06-26T11:19:28;6.70;;;4.05;;
30307;SDS011;17114;52.314;8.910;2023-06-26T11:21:59;12.18;;;4.60;;
30307;SDS011;17114;52.314;8.910;2023-06-26T11:24:28;6.43;;;3.60;;
30307;SDS011;17114;52.314;8.910;2023-06-26T11:26:59;7.22;;;3.15;;
30307;SDS011;17114;52.314;8.910;2023-06-26T11:29:29;5.70;;;3.42;;
30307;SDS011;17114;52.314;8.910;2023-06-26T11:32:00;6.50;;;3.03;;
30307;SDS011;17114;52.314;8.910;2023-06-26T11:34:31;4.22;;;3.30;;
30307;SDS011;17114;52.314;8.910;2023-06-26T11:36:59;5.57;;;3.60;;
30307;SDS011;17114;52.314;8.910;2023-06-26T11:39:27;6.28;;;3.90;;
30307;SDS011;17114;52.314;8.910;2023-06-26T11:41:54;5.72;;;3.22;;
30307;SDS011;17114;52.314;8.910;2023-06-26T11:44:21;5.63;;;3.00;;
30307;SDS011;17114;52.314;8.910;2023-06-26T11:46:51;5.60;;;3.03;;
30307;SDS011;17114;52.314;8.910;2023-06-26T11:49:18;4.88;;;2.63;;
30307;SDS011;17114;52.314;8.910;2023-06-26T11:51:49;3.13;;;2.33;;
30307;SDS011;17114;52.314;8.910;2023-06-26T11:54:22;5.25;;;2.58;;
30307;SDS011;17114;52.314;8.910;2023-06-26T11:59:18;5.78;;;3.05;;
30307;SDS011;17114;52.314;8.910;2023-06-26T12:01:45;5.13;;;2.65;;
30307;SDS011;17114;52.314;8.910;2023-06-26T12:04:13;4.53;;;2.42;;
30307;SDS011;17114;52.314;8.910;2023-06-26T12:06:45;4.18;;;2.47;;
30307;SDS011;17114;52.314;8.910;2023-06-26T12:09:14;3.85;;;2.40;;
30307;SDS011;17114;52.314;8.910;2023-06-26T12:11:44;4.40;;;2.70;;
30307;SDS011;17114;52.314;8.910;2023-06-26T12:14:15;4.45;;;2.13;;
30307;SDS011;17114;52.314;8.910;2023-06-26T12:16:44;7.32;;;2.20;;
30307;SDS011;17114;52.314;8.910;2023-06-26T12:19:11;3.78;;;2.10;;
30307;SDS011;17114;52.314;8.910;2023-06-26T12:24:08;7.20;;;2.38;;
30307;SDS011;17114;52.314;8.910;2023-06-26T12:26:40;7.85;;;2.17;;
30307;SDS011;17114;52.314;8.910;2023-06-26T12:29:12;4.40;;;2.53;;
30307;SDS011;17114;52.314;8.910;2023-06-26T12:31:59;4.97;;;2.20;;
30307;SDS011;17114;52.314;8.910;2023-06-26T12:34:27;6.00;;;2.70;;
30307;SDS011;17114;52.314;8.910;2023-06-26T12:37:05;7.00;;;2.58;;
30307;SDS011;17114;52.314;8.910;2023-06-26T12:39:46;7.00;;;2.45;;
30307;SDS011;17114;52.314;8.910;2023-06-26T12:44:46;4.22;;;2.53;;
30307;SDS011;17114;52.314;8.910;2023-06-26T12:47:14;5.35;;;2.10;;
30307;SDS011;17114;52.314;8.910;2023-06-26T12:49:43;7.20;;;2.95;;
30307;SDS011;17114;52.314;8.910;2023-06-26T12:52:12;4.25;;;2.38;;
30307;SDS011;17114;52.314;8.910;2023-06-26T12:54:40;4.18;;;2.10;;
30307;SDS011;17114;52.314;8.910;2023-06-26T12:57:08;6.10;;;2.33;;
30307;SDS011;17114;52.314;8.910;2023-06-26T12:59:36;5.43;;;2.40;;
30307;SDS011;17114;52.314;8.910;2023-06-26T13:02:04;5.70;;;2.35;;
30307;SDS011;17114;52.314;8.910;2023-06-26T13:04:32;4.57;;;2.63;;
30307;SDS011;17114;52.314;8.910;2023-06-26T13:07:02;5.18;;;2.55;;
30307;SDS011;17114;52.314;8.910;2023-06-26T13:09:34;7.13;;;2.50;;
30307;SDS011;17114;52.314;8.910;2023-06-26T13:12:03;5.65;;;2.33;;
30307;SDS011;17114;52.314;8.910;2023-06-26T13:14:31;4.25;;;2.30;;
30307;SDS011;17114;52.314;8.910;2023-06-26T13:17:02;4.15;;;2.40;;
30307;SDS011;17114;52.314;8.910;2023-06-26T13:19:33;4.88;;;2.40;;
30307;SDS011;17114;52.314;8.910;2023-06-26T13:21:59;5.13;;;2.35;;
30307;SDS011;17114;52.314;8.910;2023-06-26T13:24:27;8.05;;;2.53;;
30307;SDS011;17114;52.314;8.910;2023-06-26T13:26:54;12.23;;;2.70;;
30307;SDS011;17114;52.314;8.910;2023-06-26T13:29:20;4.90;;;2.53;;
30307;SDS011;17114;52.314;8.910;2023-06-26T13:31:47;5.78;;;2.10;;
30307;SDS011;17114;52.314;8.910;2023-06-26T13:34:21;6.05;;;2.65;;
30307;SDS011;17114;52.314;8.910;2023-06-26T13:36:49;6.25;;;2.50;;
30307;SDS011;17114;52.314;8.910;2023-06-26T13:39:16;4.97;;;2.80;;
30307;SDS011;17114;52.314;8.910;2023-06-26T13:41:43;5.78;;;2.40;;
30307;SDS011;17114;52.314;8.910;2023-06-26T13:44:11;3.33;;;1.90;;
30307;SDS011;17114;52.314;8.910;2023-06-26T13:46:55;5.65;;;2.35;;
30307;SDS011;17114;52.314;8.910;2023-06-26T13:49:22;5.72;;;2.40;;
30307;SDS011;17114;52.314;8.910;2023-06-26T13:51:49;3.22;;;2.47;;
30307;SDS011;17114;52.314;8.910;2023-06-26T13:54:15;5.22;;;2.25;;
30307;SDS011;17114;52.314;8.910;2023-06-26T13:56:44;4.47;;;2.25;;
30307;SDS011;17114;52.314;8.910;2023-06-26T13:59:11;6.45;;;2.63;;
30307;SDS011;17114;52.314;8.910;2023-06-26T14:01:39;3.67;;;2.17;;
30307;SDS011;17114;52.314;8.910;2023-06-26T14:04:08;5.03;;;2.85;;
30307;SDS011;17114;52.314;8.910;2023-06-26T14:06:35;7.07;;;2.50;;
30307;SDS011;17114;52.314;8.910;2023-06-26T14:09:02;5.57;;;2.63;;
30307;SDS011;17114;52.314;8.910;2023-06-26T14:11:30;5.80;;;2.47;;
30307;SDS011;17114;52.314;8.910;2023-06-26T14:13:59;6.90;;;2.67;;
30307;SDS011;17114;52.314;8.910;2023-06-26T14:16:26;4.30;;;2.38;;
30307;SDS011;17114;52.314;8.910;2023-06-26T14:18:55;6.50;;;2.88;;
30307;SDS011;17114;52.314;8.910;2023-06-26T14:21:22;9.18;;;3.08;;
30307;SDS011;17114;52.314;8.910;2023-06-26T14:23:49;5.32;;;2.83;;
30307;SDS011;17114;52.314;8.910;2023-06-26T14:26:16;4.97;;;2.38;;
30307;SDS011;17114;52.314;8.910;2023-06-26T14:28:43;4.78;;;2.65;;
30307;SDS011;17114;52.314;8.910;2023-06-26T14:31:11;4.25;;;2.47;;
30307;SDS011;17114;52.314;8.910;2023-06-26T14:33:38;7.28;;;2.75;;
30307;SDS011;17114;52.314;8.910;2023-06-26T14:36:05;9.55;;;2.88;;
30307;SDS011;17114;52.314;8.910;2023-06-26T14:38:32;4.90;;;2.67;;
30307;SDS011;17114;52.314;8.910;2023-06-26T14:40:59;5.95;;;2.85;;
30307;SDS011;17114;52.314;8.910;2023-06-26T14:43:26;9.55;;;2.80;;
30307;SDS011;17114;52.314;8.910;2023-06-26T14:45:53;4.50;;;2.50;;
30307;SDS011;17114;52.314;8.910;2023-06-26T14:48:21;4.35;;;2.15;;
30307;SDS011;17114;52.314;8.910;2023-06-26T14:50:48;5.22;;;2.25;;
30307;SDS011;17114;52.314;8.910;2023-06-26T14:53:15;7.35;;;2.42;;
30307;SDS011;17114;52.314;8.910;2023-06-26T14:55:41;5.72;;;2.33;;
30307;SDS011;17114;52.314;8.910;2023-06-26T14:58:08;4.47;;;1.98;;
30307;SDS011;17114;52.314;8.910;2023-06-26T15:00:35;6.93;;;2.20;;
30307;SDS011;17114;52.314;8.910;2023-06-26T15:03:02;8.20;;;1.98;;
30307;SDS011;17114;52.314;8.910;2023-06-26T15:05:30;5.10;;;1.92;;
30307;SDS011;17114;52.314;8.910;2023-06-26T15:07:57;7.93;;;2.33;;
30307;SDS011;17114;52.314;8.910;2023-06-26T15:10:24;4.80;;;2.00;;
30307;SDS011;17114;52.314;8.910;2023-06-26T15:12:54;5.97;;;1.80;;